sensor_id;sensor_type;location;lat;lon;timestamp;P1;durP1;ratioP1;P2;durP2;ratioP2
10659;SDS011;5378;53.206;13.316;2024-02-26T00:02:40;3.00;;;1.20;;
10659;SDS011;5378;53.206;13.316;2024-02-26T00:05:27;1.73;;;1.27;;
10659;SDS011;5378;53.206;13.316;2024-02-26T00:08:14;3.87;;;1.00;;
10659;SDS011;5378;53.206;13.316;2024-02-26T00:11:03;2.47;;;1.57;;
10659;SDS011;5378;53.206;13.316;2024-02-26T00:13:50;1.93;;;1.27;;
10659;SDS011;5378;53.206;13.316;2024-02-26T00:16:39;1.73;;;1.17;;
10659;SDS011;5378;53.206;13.316;2024-02-26T00:19:26;2.33;;;1.27;;
10659;SDS011;5378;53.206;13.316;2024-02-26T00:22:13;1.43;;;0.93;;
10659;SDS011;5378;53.206;13.316;2024-02-26T00:25:01;5.00;;;1.13;;
10659;SDS011;5378;53.206;13.316;2024-02-26T00:27:49;2.10;;;1.17;;
10659;SDS011;5378;53.206;13.316;2024-02-26T00:30:36;1.87;;;1.50;;
10659;SDS011;5378;53.206;13.316;2024-02-26T00:33:24;1.70;;;0.93;;
10659;SDS011;5378;53.206;13.316;2024-02-26T00:36:10;1.63;;;0.87;;
10659;SDS011;5378;53.206;13.316;2024-02-26T00:38:58;2.70;;;1.47;;
10659;SDS011;5378;53.206;13.316;2024-02-26T00:41:45;4.50;;;1.27;;
10659;SDS011;5378;53.206;13.316;2024-02-26T00:44:33;3.90;;;1.93;;
10659;SDS011;5378;53.206;13.316;2024-02-26T00:47:20;1.30;;;1.00;;
10659;SDS011;5378;53.206;13.316;2024-02-26T00:50:07;2.90;;;1.20;;
10659;SDS011;5378;53.206;13.316;2024-02-26T00:52:55;1.90;;;1.37;;
10659;SDS011;5378;53.206;13.316;2024-02-26T00:55:42;2.70;;;1.00;;
10659;SDS011;5378;53.206;13.316;2024-02-26T00:58:29;1.87;;;1.50;;
10659;SDS011;5378;53.206;13.316;2024-02-26T01:01:17;3.40;;;1.80;;
10659;SDS011;5378;53.206;13.316;2024-02-26T01:04:04;3.53;;;1.93;;
10659;SDS011;5378;53.206;13.316;2024-02-26T01:06:51;4.67;;;1.70;;
10659;SDS011;5378;53.206;13.316;2024-02-26T01:09:38;6.07;;;1.87;;
10659;SDS011;5378;53.206;13.316;2024-02-26T01:12:25;2.30;;;1.23;;
10659;SDS011;5378;53.206;13.316;2024-02-26T01:15:12;8.60;;;1.83;;
10659;SDS011;5378;53.206;13.316;2024-02-26T01:18:00;8.23;;;2.53;;
10659;SDS011;5378;53.206;13.316;2024-02-26T01:20:48;5.70;;;2.00;;
10659;SDS011;5378;53.206;13.316;2024-02-26T01:23:35;2.97;;;2.20;;
10659;SDS011;5378;53.206;13.316;2024-02-26T01:26:22;3.53;;;1.73;;
10659;SDS011;5378;53.206;13.316;2024-02-26T01:29:09;2.93;;;1.93;;
10659;SDS011;5378;53.206;13.316;2024-02-26T01:31:56;1.83;;;1.40;;
10659;SDS011;5378;53.206;13.316;2024-02-26T01:34:44;1.70;;;1.10;;
10659;SDS011;5378;53.206;13.316;2024-02-26T01:37:31;3.10;;;1.83;;
10659;SDS011;5378;53.206;13.316;2024-02-26T01:40:18;2.73;;;1.80;;
10659;SDS011;5378;53.206;13.316;2024-02-26T01:43:05;1.30;;;1.20;;
10659;SDS011;5378;53.206;13.316;2024-02-26T01:45:52;2.40;;;1.33;;
10659;SDS011;5378;53.206;13.316;2024-02-26T01:48:41;1.70;;;1.30;;
10659;SDS011;5378;53.206;13.316;2024-02-26T01:51:31;2.93;;;1.80;;
10659;SDS011;5378;53.206;13.316;2024-02-26T01:54:19;3.40;;;2.00;;
10659;SDS011;5378;53.206;13.316;2024-02-26T01:57:09;1.50;;;0.82;;
10659;SDS011;5378;53.206;13.316;2024-02-26T01:59:56;1.80;;;1.50;;
10659;SDS011;5378;53.206;13.316;2024-02-26T02:02:43;3.60;;;1.87;;
10659;SDS011;5378;53.206;13.316;2024-02-26T02:05:32;4.37;;;1.83;;
10659;SDS011;5378;53.206;13.316;2024-02-26T02:08:21;3.37;;;2.10;;
10659;SDS011;5378;53.206;13.316;2024-02-26T02:11:09;6.17;;;2.50;;
10659;SDS011;5378;53.206;13.316;2024-02-26T02:13:58;2.23;;;1.47;;
10659;SDS011;5378;53.206;13.316;2024-02-26T02:16:45;4.13;;;1.53;;
10659;SDS011;5378;53.206;13.316;2024-02-26T02:19:33;2.00;;;1.37;;
10659;SDS011;5378;53.206;13.316;2024-02-26T02:22:21;4.60;;;1.80;;
10659;SDS011;5378;53.206;13.316;2024-02-26T02:25:09;3.40;;;1.23;;
10659;SDS011;5378;53.206;13.316;2024-02-26T02:27:56;3.73;;;1.67;;
10659;SDS011;5378;53.206;13.316;2024-02-26T02:30:44;2.10;;;1.30;;
10659;SDS011;5378;53.206;13.316;2024-02-26T02:33:31;4.17;;;1.30;;
10659;SDS011;5378;53.206;13.316;2024-02-26T02:36:19;3.03;;;1.40;;
10659;SDS011;5378;53.206;13.316;2024-02-26T02:39:07;2.43;;;1.37;;
10659;SDS011;5378;53.206;13.316;2024-02-26T02:41:54;2.10;;;1.27;;
10659;SDS011;5378;53.206;13.316;2024-02-26T02:44:41;3.47;;;1.20;;
10659;SDS011;5378;53.206;13.316;2024-02-26T02:47:30;2.90;;;1.60;;
10659;SDS011;5378;53.206;13.316;2024-02-26T02:50:17;1.63;;;1.20;;
10659;SDS011;5378;53.206;13.316;2024-02-26T02:53:04;2.73;;;1.73;;
10659;SDS011;5378;53.206;13.316;2024-02-26T02:55:52;1.57;;;1.30;;
10659;SDS011;5378;53.206;13.316;2024-02-26T02:58:39;1.73;;;1.63;;
10659;SDS011;5378;53.206;13.316;2024-02-26T03:01:26;4.93;;;1.77;;
10659;SDS011;5378;53.206;13.316;2024-02-26T03:04:13;2.70;;;1.90;;
10659;SDS011;5378;53.206;13.316;2024-02-26T03:07:00;3.03;;;1.77;;
10659;SDS011;5378;53.206;13.316;2024-02-26T03:09:47;2.37;;;1.40;;
10659;SDS011;5378;53.206;13.316;2024-02-26T03:12:35;2.10;;;1.30;;
10659;SDS011;5378;53.206;13.316;2024-02-26T03:15:22;2.20;;;1.60;;
10659;SDS011;5378;53.206;13.316;2024-02-26T03:18:09;2.47;;;1.60;;
10659;SDS011;5378;53.206;13.316;2024-02-26T03:20:56;3.80;;;1.27;;
10659;SDS011;5378;53.206;13.316;2024-02-26T03:23:44;3.17;;;1.90;;
10659;SDS011;5378;53.206;13.316;2024-02-26T03:26:31;3.60;;;1.23;;
10659;SDS011;5378;53.206;13.316;2024-02-26T03:29:19;2.13;;;1.57;;
10659;SDS011;5378;53.206;13.316;2024-02-26T03:32:06;1.10;;;0.97;;
10659;SDS011;5378;53.206;13.316;2024-02-26T03:34:53;4.27;;;2.17;;
10659;SDS011;5378;53.206;13.316;2024-02-26T03:37:41;2.43;;;1.57;;
10659;SDS011;5378;53.206;13.316;2024-02-26T03:40:28;4.07;;;1.40;;
10659;SDS011;5378;53.206;13.316;2024-02-26T03:43:16;3.90;;;1.63;;
10659;SDS011;5378;53.206;13.316;2024-02-26T03:46:05;4.85;;;1.92;;
10659;SDS011;5378;53.206;13.316;2024-02-26T03:48:53;2.40;;;1.90;;
10659;SDS011;5378;53.206;13.316;2024-02-26T03:51:40;2.83;;;1.70;;
10659;SDS011;5378;53.206;13.316;2024-02-26T03:54:28;2.83;;;1.80;;
10659;SDS011;5378;53.206;13.316;2024-02-26T03:57:15;2.50;;;1.67;;
10659;SDS011;5378;53.206;13.316;2024-02-26T04:00:02;4.77;;;1.73;;
10659;SDS011;5378;53.206;13.316;2024-02-26T04:02:56;2.67;;;1.43;;
10659;SDS011;5378;53.206;13.316;2024-02-26T04:05:43;2.30;;;1.70;;
10659;SDS011;5378;53.206;13.316;2024-02-26T04:08:30;2.00;;;1.43;;
10659;SDS011;5378;53.206;13.316;2024-02-26T04:11:17;4.57;;;1.77;;
10659;SDS011;5378;53.206;13.316;2024-02-26T04:14:05;3.27;;;1.50;;
10659;SDS011;5378;53.206;13.316;2024-02-26T04:16:54;3.00;;;2.07;;
10659;SDS011;5378;53.206;13.316;2024-02-26T04:19:42;2.30;;;1.83;;
10659;SDS011;5378;53.206;13.316;2024-02-26T04:22:30;4.50;;;2.37;;
10659;SDS011;5378;53.206;13.316;2024-02-26T04:25:17;3.80;;;1.87;;
10659;SDS011;5378;53.206;13.316;2024-02-26T04:28:05;2.20;;;1.27;;
10659;SDS011;5378;53.206;13.316;2024-02-26T04:30:52;2.77;;;2.00;;
10659;SDS011;5378;53.206;13.316;2024-02-26T04:33:39;4.33;;;2.00;;
10659;SDS011;5378;53.206;13.316;2024-02-26T04:36:28;3.20;;;1.17;;
10659;SDS011;5378;53.206;13.316;2024-02-26T04:39:15;4.85;;;1.80;;
10659;SDS011;5378;53.206;13.316;2024-02-26T04:42:03;3.67;;;1.70;;
10659;SDS011;5378;53.206;13.316;2024-02-26T04:44:51;3.07;;;2.20;;
10659;SDS011;5378;53.206;13.316;2024-02-26T04:47:38;2.60;;;1.70;;
10659;SDS011;5378;53.206;13.316;2024-02-26T04:50:25;2.90;;;1.80;;
10659;SDS011;5378;53.206;13.316;2024-02-26T04:53:13;3.40;;;1.70;;
10659;SDS011;5378;53.206;13.316;2024-02-26T04:56:00;2.37;;;1.30;;
10659;SDS011;5378;53.206;13.316;2024-02-26T04:58:48;3.10;;;1.87;;
10659;SDS011;5378;53.206;13.316;2024-02-26T05:01:35;2.38;;;1.70;;
10659;SDS011;5378;53.206;13.316;2024-02-26T05:04:23;2.30;;;1.47;;
10659;SDS011;5378;53.206;13.316;2024-02-26T05:07:10;3.00;;;1.50;;
10659;SDS011;5378;53.206;13.316;2024-02-26T05:09:59;2.25;;;1.63;;
10659;SDS011;5378;53.206;13.316;2024-02-26T05:12:46;1.17;;;1.03;;
10659;SDS011;5378;53.206;13.316;2024-02-26T05:15:34;2.57;;;1.50;;
10659;SDS011;5378;53.206;13.316;2024-02-26T05:18:21;2.17;;;1.60;;
10659;SDS011;5378;53.206;13.316;2024-02-26T05:21:08;3.97;;;1.33;;
10659;SDS011;5378;53.206;13.316;2024-02-26T05:23:55;2.97;;;1.80;;
10659;SDS011;5378;53.206;13.316;2024-02-26T05:26:44;2.70;;;1.73;;
10659;SDS011;5378;53.206;13.316;2024-02-26T05:29:32;3.38;;;1.48;;
10659;SDS011;5378;53.206;13.316;2024-02-26T05:32:19;3.17;;;2.17;;
10659;SDS011;5378;53.206;13.316;2024-02-26T05:35:06;5.20;;;1.80;;
10659;SDS011;5378;53.206;13.316;2024-02-26T05:37:54;3.40;;;1.67;;
10659;SDS011;5378;53.206;13.316;2024-02-26T05:40:41;2.73;;;1.87;;
10659;SDS011;5378;53.206;13.316;2024-02-26T05:43:29;3.80;;;1.97;;
10659;SDS011;5378;53.206;13.316;2024-02-26T05:46:16;3.30;;;2.10;;
10659;SDS011;5378;53.206;13.316;2024-02-26T05:49:04;2.40;;;1.73;;
10659;SDS011;5378;53.206;13.316;2024-02-26T05:51:52;5.00;;;2.67;;
10659;SDS011;5378;53.206;13.316;2024-02-26T05:54:39;3.50;;;2.00;;
10659;SDS011;5378;53.206;13.316;2024-02-26T05:57:26;2.97;;;1.70;;
10659;SDS011;5378;53.206;13.316;2024-02-26T06:00:15;2.83;;;1.90;;
10659;SDS011;5378;53.206;13.316;2024-02-26T06:03:02;3.27;;;1.63;;
10659;SDS011;5378;53.206;13.316;2024-02-26T06:05:49;2.97;;;1.97;;
10659;SDS011;5378;53.206;13.316;2024-02-26T06:08:36;5.20;;;2.30;;
10659;SDS011;5378;53.206;13.316;2024-02-26T06:11:24;2.70;;;1.30;;
10659;SDS011;5378;53.206;13.316;2024-02-26T06:14:11;3.90;;;2.20;;
10659;SDS011;5378;53.206;13.316;2024-02-26T06:17:01;3.37;;;2.30;;
10659;SDS011;5378;53.206;13.316;2024-02-26T06:19:48;3.00;;;2.10;;
10659;SDS011;5378;53.206;13.316;2024-02-26T06:22:35;4.53;;;2.40;;
10659;SDS011;5378;53.206;13.316;2024-02-26T06:25:22;2.03;;;1.77;;
10659;SDS011;5378;53.206;13.316;2024-02-26T06:28:11;4.50;;;2.40;;
10659;SDS011;5378;53.206;13.316;2024-02-26T06:30:58;4.77;;;2.37;;
10659;SDS011;5378;53.206;13.316;2024-02-26T06:33:47;3.47;;;2.03;;
10659;SDS011;5378;53.206;13.316;2024-02-26T06:36:34;5.50;;;2.53;;
10659;SDS011;5378;53.206;13.316;2024-02-26T06:39:21;5.47;;;3.23;;
10659;SDS011;5378;53.206;13.316;2024-02-26T06:42:08;3.63;;;2.40;;
10659;SDS011;5378;53.206;13.316;2024-02-26T06:44:56;5.63;;;2.13;;
10659;SDS011;5378;53.206;13.316;2024-02-26T06:47:43;4.83;;;1.80;;
10659;SDS011;5378;53.206;13.316;2024-02-26T06:50:32;3.97;;;2.47;;
10659;SDS011;5378;53.206;13.316;2024-02-26T06:53:20;28.13;;;11.57;;
10659;SDS011;5378;53.206;13.316;2024-02-26T06:56:06;21.50;;;8.10;;
10659;SDS011;5378;53.206;13.316;2024-02-26T06:58:54;63.97;;;22.00;;
10659;SDS011;5378;53.206;13.316;2024-02-26T07:01:41;104.77;;;34.63;;
10659;SDS011;5378;53.206;13.316;2024-02-26T07:04:29;79.47;;;24.90;;
10659;SDS011;5378;53.206;13.316;2024-02-26T07:07:20;31.77;;;12.50;;
10659;SDS011;5378;53.206;13.316;2024-02-26T07:10:09;14.00;;;5.57;;
10659;SDS011;5378;53.206;13.316;2024-02-26T07:12:57;13.53;;;5.93;;
10659;SDS011;5378;53.206;13.316;2024-02-26T07:15:44;6.97;;;4.20;;
10659;SDS011;5378;53.206;13.316;2024-02-26T07:18:31;5.43;;;3.00;;
10659;SDS011;5378;53.206;13.316;2024-02-26T07:21:18;7.27;;;2.97;;
10659;SDS011;5378;53.206;13.316;2024-02-26T07:24:07;4.43;;;2.80;;
10659;SDS011;5378;53.206;13.316;2024-02-26T07:26:55;5.80;;;2.67;;
10659;SDS011;5378;53.206;13.316;2024-02-26T07:29:42;4.80;;;2.50;;
10659;SDS011;5378;53.206;13.316;2024-02-26T07:32:29;5.10;;;3.00;;
10659;SDS011;5378;53.206;13.316;2024-02-26T07:35:16;6.47;;;3.20;;
10659;SDS011;5378;53.206;13.316;2024-02-26T07:38:03;4.83;;;2.53;;
10659;SDS011;5378;53.206;13.316;2024-02-26T07:40:52;9.33;;;3.47;;
10659;SDS011;5378;53.206;13.316;2024-02-26T07:43:40;7.00;;;3.40;;
10659;SDS011;5378;53.206;13.316;2024-02-26T07:46:27;6.47;;;3.50;;
10659;SDS011;5378;53.206;13.316;2024-02-26T07:49:14;6.50;;;3.23;;
10659;SDS011;5378;53.206;13.316;2024-02-26T07:52:01;4.70;;;2.80;;
10659;SDS011;5378;53.206;13.316;2024-02-26T07:54:48;7.20;;;3.30;;
10659;SDS011;5378;53.206;13.316;2024-02-26T07:57:37;7.93;;;3.57;;
10659;SDS011;5378;53.206;13.316;2024-02-26T08:00:24;11.80;;;3.60;;
10659;SDS011;5378;53.206;13.316;2024-02-26T08:03:12;8.17;;;3.97;;
10659;SDS011;5378;53.206;13.316;2024-02-26T08:06:01;5.60;;;3.70;;
10659;SDS011;5378;53.206;13.316;2024-02-26T08:08:48;8.57;;;3.50;;
10659;SDS011;5378;53.206;13.316;2024-02-26T08:11:35;5.80;;;3.27;;
10659;SDS011;5378;53.206;13.316;2024-02-26T08:14:23;7.70;;;3.70;;
10659;SDS011;5378;53.206;13.316;2024-02-26T08:17:10;7.43;;;4.00;;
10659;SDS011;5378;53.206;13.316;2024-02-26T08:19:57;13.37;;;4.90;;
10659;SDS011;5378;53.206;13.316;2024-02-26T08:22:44;8.23;;;3.93;;
10659;SDS011;5378;53.206;13.316;2024-02-26T08:25:31;9.50;;;5.30;;
10659;SDS011;5378;53.206;13.316;2024-02-26T08:28:19;11.23;;;5.40;;
10659;SDS011;5378;53.206;13.316;2024-02-26T08:31:07;7.80;;;4.70;;
10659;SDS011;5378;53.206;13.316;2024-02-26T08:33:54;7.20;;;4.33;;
10659;SDS011;5378;53.206;13.316;2024-02-26T08:36:41;12.33;;;5.03;;
10659;SDS011;5378;53.206;13.316;2024-02-26T08:39:30;8.40;;;4.30;;
10659;SDS011;5378;53.206;13.316;2024-02-26T08:42:16;6.83;;;3.97;;
10659;SDS011;5378;53.206;13.316;2024-02-26T08:45:04;5.07;;;3.10;;
10659;SDS011;5378;53.206;13.316;2024-02-26T08:47:53;11.67;;;3.87;;
10659;SDS011;5378;53.206;13.316;2024-02-26T08:50:41;6.60;;;3.47;;
10659;SDS011;5378;53.206;13.316;2024-02-26T08:53:28;13.30;;;6.37;;
10659;SDS011;5378;53.206;13.316;2024-02-26T08:56:15;21.30;;;6.80;;
10659;SDS011;5378;53.206;13.316;2024-02-26T08:59:07;14.67;;;7.30;;
10659;SDS011;5378;53.206;13.316;2024-02-26T09:01:55;14.43;;;5.40;;
10659;SDS011;5378;53.206;13.316;2024-02-26T09:04:43;18.93;;;7.43;;
10659;SDS011;5378;53.206;13.316;2024-02-26T09:07:30;12.33;;;6.30;;
10659;SDS011;5378;53.206;13.316;2024-02-26T09:10:18;11.30;;;5.87;;
10659;SDS011;5378;53.206;13.316;2024-02-26T09:13:05;10.83;;;5.67;;
10659;SDS011;5378;53.206;13.316;2024-02-26T09:15:52;18.47;;;9.47;;
10659;SDS011;5378;53.206;13.316;2024-02-26T09:18:40;13.93;;;8.20;;
10659;SDS011;5378;53.206;13.316;2024-02-26T09:21:28;16.80;;;10.27;;
10659;SDS011;5378;53.206;13.316;2024-02-26T09:24:16;20.60;;;8.67;;
10659;SDS011;5378;53.206;13.316;2024-02-26T09:27:03;11.97;;;7.27;;
10659;SDS011;5378;53.206;13.316;2024-02-26T09:29:50;10.13;;;5.03;;
10659;SDS011;5378;53.206;13.316;2024-02-26T09:32:37;10.90;;;5.57;;
10659;SDS011;5378;53.206;13.316;2024-02-26T09:35:25;10.87;;;5.93;;
10659;SDS011;5378;53.206;13.316;2024-02-26T09:38:14;10.83;;;5.33;;
10659;SDS011;5378;53.206;13.316;2024-02-26T09:41:01;9.20;;;5.00;;
10659;SDS011;5378;53.206;13.316;2024-02-26T09:43:48;9.73;;;5.27;;
10659;SDS011;5378;53.206;13.316;2024-02-26T09:46:39;13.87;;;5.87;;
10659;SDS011;5378;53.206;13.316;2024-02-26T09:49:26;8.80;;;5.67;;
10659;SDS011;5378;53.206;13.316;2024-02-26T09:52:14;12.17;;;5.70;;
10659;SDS011;5378;53.206;13.316;2024-02-26T09:55:04;8.70;;;5.20;;
10659;SDS011;5378;53.206;13.316;2024-02-26T09:57:52;13.50;;;6.13;;
10659;SDS011;5378;53.206;13.316;2024-02-26T10:00:40;10.43;;;4.90;;
10659;SDS011;5378;53.206;13.316;2024-02-26T10:03:41;15.77;;;5.83;;
10659;SDS011;5378;53.206;13.316;2024-02-26T10:06:30;10.80;;;5.20;;
10659;SDS011;5378;53.206;13.316;2024-02-26T10:09:18;16.00;;;6.87;;
10659;SDS011;5378;53.206;13.316;2024-02-26T10:12:08;10.90;;;5.40;;
10659;SDS011;5378;53.206;13.316;2024-02-26T10:14:57;21.27;;;9.33;;
10659;SDS011;5378;53.206;13.316;2024-02-26T10:17:44;9.93;;;5.70;;
10659;SDS011;5378;53.206;13.316;2024-02-26T10:20:31;91.13;;;26.07;;
10659;SDS011;5378;53.206;13.316;2024-02-26T10:23:19;15.37;;;7.70;;
10659;SDS011;5378;53.206;13.316;2024-02-26T10:26:06;13.93;;;6.77;;
10659;SDS011;5378;53.206;13.316;2024-02-26T10:28:55;16.40;;;7.70;;
10659;SDS011;5378;53.206;13.316;2024-02-26T10:31:46;8.17;;;4.43;;
10659;SDS011;5378;53.206;13.316;2024-02-26T10:34:34;13.03;;;6.80;;
10659;SDS011;5378;53.206;13.316;2024-02-26T10:37:22;11.37;;;5.30;;
10659;SDS011;5378;53.206;13.316;2024-02-26T10:40:11;11.47;;;5.80;;
10659;SDS011;5378;53.206;13.316;2024-02-26T10:42:58;12.30;;;6.17;;
10659;SDS011;5378;53.206;13.316;2024-02-26T10:45:47;10.50;;;5.63;;
10659;SDS011;5378;53.206;13.316;2024-02-26T10:48:34;15.40;;;7.10;;
10659;SDS011;5378;53.206;13.316;2024-02-26T10:51:24;9.40;;;5.03;;
10659;SDS011;5378;53.206;13.316;2024-02-26T10:54:15;13.80;;;6.50;;
10659;SDS011;5378;53.206;13.316;2024-02-26T10:57:02;13.53;;;6.20;;
10659;SDS011;5378;53.206;13.316;2024-02-26T10:59:52;20.83;;;8.97;;
10659;SDS011;5378;53.206;13.316;2024-02-26T11:02:43;12.93;;;6.53;;
10659;SDS011;5378;53.206;13.316;2024-02-26T11:05:31;18.67;;;7.43;;
10659;SDS011;5378;53.206;13.316;2024-02-26T11:08:20;14.47;;;7.10;;
10659;SDS011;5378;53.206;13.316;2024-02-26T11:11:09;15.10;;;5.93;;
10659;SDS011;5378;53.206;13.316;2024-02-26T11:14:00;14.10;;;7.70;;
10659;SDS011;5378;53.206;13.316;2024-02-26T11:16:50;17.73;;;10.00;;
10659;SDS011;5378;53.206;13.316;2024-02-26T11:19:38;13.73;;;7.97;;
10659;SDS011;5378;53.206;13.316;2024-02-26T11:22:28;15.90;;;9.20;;
10659;SDS011;5378;53.206;13.316;2024-02-26T11:25:15;14.40;;;7.80;;
10659;SDS011;5378;53.206;13.316;2024-02-26T11:28:03;15.70;;;7.90;;
10659;SDS011;5378;53.206;13.316;2024-02-26T11:30:52;18.70;;;7.17;;
10659;SDS011;5378;53.206;13.316;2024-02-26T11:33:40;14.70;;;7.97;;
10659;SDS011;5378;53.206;13.316;2024-02-26T11:36:29;16.13;;;7.73;;
10659;SDS011;5378;53.206;13.316;2024-02-26T11:39:16;13.80;;;7.57;;
10659;SDS011;5378;53.206;13.316;2024-02-26T11:42:04;17.67;;;8.10;;
10659;SDS011;5378;53.206;13.316;2024-02-26T11:44:52;19.73;;;9.27;;
10659;SDS011;5378;53.206;13.316;2024-02-26T11:47:41;16.00;;;7.80;;
10659;SDS011;5378;53.206;13.316;2024-02-26T11:50:34;15.73;;;7.63;;
10659;SDS011;5378;53.206;13.316;2024-02-26T11:53:24;16.00;;;8.97;;
10659;SDS011;5378;53.206;13.316;2024-02-26T11:56:19;14.97;;;7.63;;
10659;SDS011;5378;53.206;13.316;2024-02-26T11:59:10;15.27;;;8.30;;
10659;SDS011;5378;53.206;13.316;2024-02-26T12:01:58;33.27;;;17.40;;
10659;SDS011;5378;53.206;13.316;2024-02-26T12:04:47;12.00;;;7.10;;
10659;SDS011;5378;53.206;13.316;2024-02-26T12:07:36;14.87;;;8.00;;
10659;SDS011;5378;53.206;13.316;2024-02-26T12:10:26;16.70;;;8.20;;
10659;SDS011;5378;53.206;13.316;2024-02-26T12:13:15;39.73;;;14.30;;
10659;SDS011;5378;53.206;13.316;2024-02-26T12:16:03;94.30;;;30.37;;
10659;SDS011;5378;53.206;13.316;2024-02-26T12:18:50;176.83;;;63.27;;
10659;SDS011;5378;53.206;13.316;2024-02-26T12:21:37;30.80;;;12.40;;
10659;SDS011;5378;53.206;13.316;2024-02-26T12:24:24;19.63;;;8.20;;
10659;SDS011;5378;53.206;13.316;2024-02-26T12:27:13;32.07;;;15.93;;
10659;SDS011;5378;53.206;13.316;2024-02-26T12:30:00;90.57;;;38.23;;
10659;SDS011;5378;53.206;13.316;2024-02-26T12:32:49;75.53;;;34.23;;
10659;SDS011;5378;53.206;13.316;2024-02-26T12:35:37;76.63;;;28.40;;
10659;SDS011;5378;53.206;13.316;2024-02-26T12:38:25;16.90;;;9.30;;
10659;SDS011;5378;53.206;13.316;2024-02-26T12:41:13;18.57;;;9.33;;
10659;SDS011;5378;53.206;13.316;2024-02-26T12:44:03;18.00;;;9.83;;
10659;SDS011;5378;53.206;13.316;2024-02-26T12:46:50;61.63;;;27.10;;
10659;SDS011;5378;53.206;13.316;2024-02-26T12:49:36;19.53;;;10.50;;
10659;SDS011;5378;53.206;13.316;2024-02-26T12:52:23;45.03;;;23.60;;
10659;SDS011;5378;53.206;13.316;2024-02-26T12:55:13;41.50;;;20.70;;
10659;SDS011;5378;53.206;13.316;2024-02-26T12:58:02;48.90;;;22.63;;
10659;SDS011;5378;53.206;13.316;2024-02-26T13:00:51;24.40;;;13.23;;
10659;SDS011;5378;53.206;13.316;2024-02-26T13:03:39;63.20;;;28.90;;
10659;SDS011;5378;53.206;13.316;2024-02-26T13:06:27;36.97;;;19.90;;
10659;SDS011;5378;53.206;13.316;2024-02-26T13:09:14;35.60;;;15.80;;
10659;SDS011;5378;53.206;13.316;2024-02-26T13:12:03;40.60;;;21.60;;
10659;SDS011;5378;53.206;13.316;2024-02-26T13:14:58;76.87;;;34.33;;
10659;SDS011;5378;53.206;13.316;2024-02-26T13:17:47;114.37;;;50.67;;
10659;SDS011;5378;53.206;13.316;2024-02-26T13:20:35;48.80;;;23.30;;
10659;SDS011;5378;53.206;13.316;2024-02-26T13:23:22;56.70;;;23.57;;
10659;SDS011;5378;53.206;13.316;2024-02-26T13:26:11;31.43;;;16.10;;
10659;SDS011;5378;53.206;13.316;2024-02-26T13:28:59;54.33;;;22.90;;
10659;SDS011;5378;53.206;13.316;2024-02-26T13:31:47;169.37;;;67.40;;
10659;SDS011;5378;53.206;13.316;2024-02-26T13:34:36;85.63;;;38.13;;
10659;SDS011;5378;53.206;13.316;2024-02-26T13:37:23;173.13;;;65.83;;
10659;SDS011;5378;53.206;13.316;2024-02-26T13:40:10;30.73;;;17.27;;
10659;SDS011;5378;53.206;13.316;2024-02-26T13:42:58;18.33;;;9.50;;
10659;SDS011;5378;53.206;13.316;2024-02-26T13:45:45;41.77;;;20.93;;
10659;SDS011;5378;53.206;13.316;2024-02-26T13:48:32;17.77;;;11.07;;
10659;SDS011;5378;53.206;13.316;2024-02-26T13:51:21;16.87;;;7.90;;
10659;SDS011;5378;53.206;13.316;2024-02-26T13:54:07;12.73;;;5.47;;
10659;SDS011;5378;53.206;13.316;2024-02-26T13:56:55;26.27;;;14.17;;
10659;SDS011;5378;53.206;13.316;2024-02-26T13:59:42;14.07;;;7.27;;
10659;SDS011;5378;53.206;13.316;2024-02-26T14:02:29;8.67;;;5.70;;
10659;SDS011;5378;53.206;13.316;2024-02-26T14:05:16;20.87;;;8.47;;
10659;SDS011;5378;53.206;13.316;2024-02-26T14:08:06;16.40;;;6.77;;
10659;SDS011;5378;53.206;13.316;2024-02-26T14:10:53;13.17;;;7.10;;
10659;SDS011;5378;53.206;13.316;2024-02-26T14:13:41;16.43;;;6.70;;
10659;SDS011;5378;53.206;13.316;2024-02-26T14:16:29;18.90;;;5.67;;
10659;SDS011;5378;53.206;13.316;2024-02-26T14:19:16;17.37;;;8.90;;
10659;SDS011;5378;53.206;13.316;2024-02-26T14:22:03;17.40;;;7.83;;
10659;SDS011;5378;53.206;13.316;2024-02-26T14:24:52;34.77;;;13.47;;
10659;SDS011;5378;53.206;13.316;2024-02-26T14:27:39;14.40;;;8.83;;
10659;SDS011;5378;53.206;13.316;2024-02-26T14:30:27;7.87;;;5.40;;
10659;SDS011;5378;53.206;13.316;2024-02-26T14:33:14;10.33;;;5.87;;
10659;SDS011;5378;53.206;13.316;2024-02-26T14:36:01;7.87;;;5.30;;
10659;SDS011;5378;53.206;13.316;2024-02-26T14:38:48;8.50;;;5.50;;
10659;SDS011;5378;53.206;13.316;2024-02-26T14:41:37;6.70;;;3.83;;
10659;SDS011;5378;53.206;13.316;2024-02-26T14:44:24;8.73;;;4.80;;
10659;SDS011;5378;53.206;13.316;2024-02-26T14:47:12;10.00;;;4.70;;
10659;SDS011;5378;53.206;13.316;2024-02-26T14:49:59;10.97;;;5.97;;
10659;SDS011;5378;53.206;13.316;2024-02-26T14:52:45;33.20;;;12.90;;
10659;SDS011;5378;53.206;13.316;2024-02-26T14:55:33;25.33;;;10.70;;
10659;SDS011;5378;53.206;13.316;2024-02-26T14:58:22;11.23;;;5.73;;
10659;SDS011;5378;53.206;13.316;2024-02-26T15:01:09;10.97;;;6.20;;
10659;SDS011;5378;53.206;13.316;2024-02-26T15:03:57;9.00;;;5.73;;
10659;SDS011;5378;53.206;13.316;2024-02-26T15:06:44;7.70;;;5.00;;
10659;SDS011;5378;53.206;13.316;2024-02-26T15:09:31;12.53;;;5.43;;
10659;SDS011;5378;53.206;13.316;2024-02-26T15:12:20;8.03;;;4.53;;
10659;SDS011;5378;53.206;13.316;2024-02-26T15:15:10;9.37;;;4.80;;
10659;SDS011;5378;53.206;13.316;2024-02-26T15:17:57;6.20;;;4.03;;
10659;SDS011;5378;53.206;13.316;2024-02-26T15:20:45;8.80;;;4.60;;
10659;SDS011;5378;53.206;13.316;2024-02-26T15:23:32;8.53;;;4.77;;
10659;SDS011;5378;53.206;13.316;2024-02-26T15:26:21;7.47;;;3.77;;
10659;SDS011;5378;53.206;13.316;2024-02-26T15:29:08;9.80;;;4.80;;
10659;SDS011;5378;53.206;13.316;2024-02-26T15:31:57;6.17;;;3.50;;
10659;SDS011;5378;53.206;13.316;2024-02-26T15:34:44;20.20;;;4.73;;
10659;SDS011;5378;53.206;13.316;2024-02-26T15:37:31;5.73;;;3.47;;
10659;SDS011;5378;53.206;13.316;2024-02-26T15:40:19;10.13;;;3.60;;
10659;SDS011;5378;53.206;13.316;2024-02-26T15:43:07;11.50;;;5.43;;
10659;SDS011;5378;53.206;13.316;2024-02-26T15:45:55;10.57;;;3.83;;
10659;SDS011;5378;53.206;13.316;2024-02-26T15:48:43;9.83;;;4.77;;
10659;SDS011;5378;53.206;13.316;2024-02-26T15:51:30;9.13;;;4.47;;
10659;SDS011;5378;53.206;13.316;2024-02-26T15:54:17;6.40;;;2.93;;
10659;SDS011;5378;53.206;13.316;2024-02-26T15:57:04;13.40;;;5.20;;
10659;SDS011;5378;53.206;13.316;2024-02-26T15:59:51;8.17;;;4.30;;
10659;SDS011;5378;53.206;13.316;2024-02-26T16:02:41;11.77;;;4.00;;
10659;SDS011;5378;53.206;13.316;2024-02-26T16:05:29;11.70;;;4.23;;
10659;SDS011;5378;53.206;13.316;2024-02-26T16:08:16;9.43;;;3.67;;
10659;SDS011;5378;53.206;13.316;2024-02-26T16:11:06;7.80;;;3.47;;
10659;SDS011;5378;53.206;13.316;2024-02-26T16:13:54;11.30;;;4.40;;
10659;SDS011;5378;53.206;13.316;2024-02-26T16:16:49;4.70;;;2.87;;
10659;SDS011;5378;53.206;13.316;2024-02-26T16:19:40;5.33;;;3.00;;
10659;SDS011;5378;53.206;13.316;2024-02-26T16:22:29;4.80;;;3.10;;
10659;SDS011;5378;53.206;13.316;2024-02-26T16:25:17;4.73;;;2.33;;
10659;SDS011;5378;53.206;13.316;2024-02-26T16:28:04;2.80;;;2.10;;
10659;SDS011;5378;53.206;13.316;2024-02-26T16:30:52;4.53;;;2.10;;
10659;SDS011;5378;53.206;13.316;2024-02-26T16:33:39;3.70;;;1.90;;
10659;SDS011;5378;53.206;13.316;2024-02-26T16:36:26;8.07;;;2.63;;
10659;SDS011;5378;53.206;13.316;2024-02-26T16:39:14;7.30;;;2.40;;
10659;SDS011;5378;53.206;13.316;2024-02-26T16:42:02;6.30;;;2.80;;
10659;SDS011;5378;53.206;13.316;2024-02-26T16:44:50;2.90;;;1.87;;